Time,TemperatureF,DewpointF,PressureIn,WindDirection,WindDirectionDegrees,WindSpeedMPH,WindSpeedGustMPH,Humidity,HourlyPrecipIn,Conditions,Clouds,dailyrainin,SoftwareType,DateUTC
2013-03-18 00:12:00,58.7,58.0,29.93,East,85,3.0,4.0,97,0.00,,,0.00,weatherlink.com 1.10,2013-03-18 05:12:00,
2013-03-18 00:27:00,59.0,58.0,29.92,East,87,3.0,10.0,97,0.00,,,0.00,weatherlink.com 1.10,2013-03-18 05:27:00,
2013-03-18 00:42:00,59.5,58.0,29.92,ESE,103,3.0,11.0,96,0.00,,,0.00,weatherlink.com 1.10,2013-03-18 05:42:00,
2013-03-18 00:57:00,59.6,59.0,29.92,ESE,103,4.0,7.0,96,0.00,,,0.00,weatherlink.com 1.10,2013-03-18 05:57:00,
2013-03-18 01:12:00,59.7,59.0,29.91,East,83,3.0,8.0,96,0.00,,,0.00,weatherlink.com 1.10,2013-03-18 06:12:00,
2013-03-18 01:27:00,59.7,59.0,29.92,SE,137,2.0,6.0,96,0.00,,,0.00,weatherlink.com 1.10,2013-03-18 06:27:00,
2013-03-18 01:57:00,59.9,59.0,29.92,ESE,107,0.0,7.0,96,0.00,,,0.00,weatherlink.com 1.10,2013-03-18 06:57:00,
2013-03-18 02:12:00,59.8,59.0,29.91,NE,54,2.0,6.0,96,0.00,,,0.00,weatherlink.com 1.10,2013-03-18 07:12:00,
2013-03-18 02:27:00,59.6,59.0,29.91,SE,130,1.0,5.0,96,0.00,,,0.00,weatherlink.com 1.10,2013-03-18 07:27:00,
2013-03-18 02:42:00,59.2,58.0,29.91,East,94,2.0,6.0,96,0.00,,,0.00,weatherlink.com 1.10,2013-03-18 07:42:00,
2013-03-18 02:57:00,58.7,58.0,29.91,ENE,75,0.0,2.0,97,0.00,,,0.00,weatherlink.com 1.10,2013-03-18 07:57:00,
2013-03-18 03:12:00,58.0,57.0,29.91,ENE,75,0.0,1.0,97,0.00,,,0.00,weatherlink.com 1.10,2013-03-18 08:12:00,
2013-03-18 03:27:00,58.0,58.0,29.90,ENE,77,1.0,2.0,98,0.00,,,0.00,weatherlink.com 1.10,2013-03-18 08:27:00,
2013-03-18 03:42:00,58.4,58.0,29.91,ESE,103,3.0,4.0,98,0.00,,,0.00,weatherlink.com 1.10,2013-03-18 08:42:00,
2013-03-18 03:57:00,58.7,58.0,29.91,East,89,1.0,2.0,98,0.00,,,0.00,weatherlink.com 1.10,2013-03-18 08:57:00,
2013-03-18 04:12:00,58.8,58.0,29.91,East,84,1.0,3.0,98,0.00,,,0.00,weatherlink.com 1.10,2013-03-18 09:12:00,
2013-03-18 04:27:00,59.0,59.0,29.91,East,90,1.0,3.0,98,0.00,,,0.00,weatherlink.com 1.10,2013-03-18 09:27:00,
2013-03-18 04:42:00,59.0,59.0,29.91,East,84,1.0,3.0,98,0.00,,,0.00,weatherlink.com 1.10,2013-03-18 09:42:00,
2013-03-18 04:57:00,59.1,58.0,29.91,East,89,3.0,5.0,97,0.00,,,0.00,weatherlink.com 1.10,2013-03-18 09:57:00,
2013-03-18 05:12:00,59.1,58.0,29.90,ESE,121,3.0,7.0,97,0.00,,,0.00,weatherlink.com 1.10,2013-03-18 10:12:00,
2013-03-18 05:27:00,59.1,58.0,29.91,East,82,2.0,9.0,97,0.00,,,0.00,weatherlink.com 1.10,2013-03-18 10:27:00,
2013-03-18 05:42:00,59.1,58.0,29.92,East,94,4.0,5.0,97,0.00,,,0.00,weatherlink.com 1.10,2013-03-18 10:42:00,
2013-03-18 05:57:00,59.3,59.0,29.92,SE,132,1.0,4.0,97,0.00,,,0.00,weatherlink.com 1.10,2013-03-18 10:57:00,
2013-03-18 06:12:00,59.3,59.0,29.93,ENE,77,4.0,5.0,97,0.00,,,0.00,weatherlink.com 1.10,2013-03-18 11:12:00,
2013-03-18 06:27:00,59.4,59.0,29.93,East,82,1.0,4.0,97,0.00,,,0.00,weatherlink.com 1.10,2013-03-18 11:27:00,
2013-03-18 06:42:00,59.4,59.0,29.94,East,87,2.0,4.0,97,0.00,,,0.00,weatherlink.com 1.10,2013-03-18 11:42:00,
2013-03-18 06:57:00,59.5,59.0,29.94,East,84,2.0,6.0,97,0.00,,,0.00,weatherlink.com 1.10,2013-03-18 11:57:00,
2013-03-18 07:12:00,59.5,59.0,29.93,ESE,102,3.0,7.0,97,0.00,,,0.00,weatherlink.com 1.10,2013-03-18 12:12:00,
2013-03-18 07:27:00,59.5,59.0,29.93,East,96,2.0,7.0,97,0.00,,,0.00,weatherlink.com 1.10,2013-03-18 12:27:00,
2013-03-18 07:42:00,59.7,59.0,29.93,ESE,115,5.0,6.0,97,0.00,,,0.00,weatherlink.com 1.10,2013-03-18 12:42:00,
2013-03-18 07:57:00,60.3,60.0,29.93,ESE,112,3.0,6.0,97,0.00,,,0.00,weatherlink.com 1.10,2013-03-18 12:57:00,
2013-03-18 08:12:00,61.2,60.0,29.94,ENE,69,2.0,6.0,96,0.00,,,0.00,weatherlink.com 1.10,2013-03-18 13:12:00,
2013-03-18 08:28:00,61.5,60.0,29.94,East,88,2.0,6.0,95,0.00,,,0.00,weatherlink.com 1.10,2013-03-18 13:28:00,
2013-03-18 08:43:00,62.0,60.0,29.94,East,96,3.0,6.0,94,0.00,,,0.00,weatherlink.com 1.10,2013-03-18 13:43:00,
2013-03-18 08:58:00,63.0,61.0,29.94,ESE,115,3.0,6.0,92,0.00,,,0.00,weatherlink.com 1.10,2013-03-18 13:58:00,
2013-03-18 09:13:00,63.3,61.0,29.94,East,84,3.0,10.0,92,0.00,,,0.00,weatherlink.com 1.10,2013-03-18 14:13:00,
2013-03-18 09:28:00,64.7,62.0,29.93,East,86,4.0,8.0,90,0.00,,,0.00,weatherlink.com 1.10,2013-03-18 14:28:00,
2013-03-18 09:43:00,67.2,63.0,29.93,NNE,22,2.0,9.0,85,0.00,,,0.00,weatherlink.com 1.10,2013-03-18 14:43:00,
2013-03-18 09:58:00,69.2,63.0,29.92,East,94,7.0,8.0,81,0.00,,,0.00,weatherlink.com 1.10,2013-03-18 14:58:00,
2013-03-18 10:13:00,71.0,64.0,29.91,SE,132,2.0,10.0,79,0.00,,,0.00,weatherlink.com 1.10,2013-03-18 15:13:00,
2013-03-18 10:28:00,72.7,64.0,29.91,ESE,103,6.0,11.0,75,0.00,,,0.00,weatherlink.com 1.10,2013-03-18 15:28:00,
2013-03-18 10:43:00,74.3,64.0,29.91,NNE,32,4.0,10.0,71,0.00,,,0.00,weatherlink.com 1.10,2013-03-18 15:43:00,
2013-03-18 10:58:00,75.8,65.0,29.91,SW,217,3.0,9.0,69,0.00,,,0.00,weatherlink.com 1.10,2013-03-18 15:58:00,
2013-03-18 11:13:00,75.1,65.0,29.91,SE,136,3.0,10.0,71,0.00,,,0.00,weatherlink.com 1.10,2013-03-18 16:13:00,
2013-03-18 11:28:00,76.3,65.0,29.89,SE,146,1.0,10.0,69,0.00,,,0.00,weatherlink.com 1.10,2013-03-18 16:28:00,
2013-03-18 11:43:00,76.2,66.0,29.90,South,186,2.0,12.0,70,0.00,,,0.00,weatherlink.com 1.10,2013-03-18 16:43:00,
2013-03-18 11:58:00,76.0,66.0,29.89,SE,138,4.0,11.0,70,0.00,,,0.00,weatherlink.com 1.10,2013-03-18 16:58:00,
2013-03-18 12:13:00,75.3,66.0,29.89,SSW,200,3.0,9.0,72,0.00,,,0.00,weatherlink.com 1.10,2013-03-18 17:13:00,
2013-03-18 12:28:00,76.9,66.0,29.88,South,173,6.0,7.0,70,0.00,,,0.00,weatherlink.com 1.10,2013-03-18 17:28:00,
2013-03-18 12:43:00,76.8,66.0,29.89,SSE,153,5.0,7.0,70,0.00,,,0.00,weatherlink.com 1.10,2013-03-18 17:43:00,
2013-03-18 12:58:00,78.2,67.0,29.87,ESE,103,5.0,9.0,68,0.00,,,0.00,weatherlink.com 1.10,2013-03-18 17:58:00,
2013-03-18 13:13:00,78.2,66.0,29.86,SSE,165,2.0,12.0,67,0.00,,,0.00,weatherlink.com 1.10,2013-03-18 18:13:00,
2013-03-18 13:28:00,80.0,68.0,29.85,SW,221,5.0,9.0,67,0.00,,,0.00,weatherlink.com 1.10,2013-03-18 18:28:00,
2013-03-18 13:43:00,80.1,66.0,29.85,ENE,64,2.0,12.0,63,0.00,,,0.00,weatherlink.com 1.10,2013-03-18 18:43:00,
2013-03-18 13:58:00,78.0,67.0,29.83,WNW,286,2.0,14.0,69,0.00,,,0.00,weatherlink.com 1.10,2013-03-18 18:58:00,
2013-03-18 14:13:00,78.1,67.0,29.82,NNE,16,1.0,10.0,69,0.00,,,0.00,weatherlink.com 1.10,2013-03-18 19:13:00,
2013-03-18 14:29:00,79.0,67.0,29.81,East,89,3.0,10.0,67,0.00,,,0.00,weatherlink.com 1.10,2013-03-18 19:29:00,
2013-03-18 14:44:00,79.7,67.0,29.80,SE,129,5.0,11.0,65,0.00,,,0.00,weatherlink.com 1.10,2013-03-18 19:44:00,
2013-03-18 14:59:00,78.8,66.0,29.80,South,190,5.0,14.0,66,0.00,,,0.00,weatherlink.com 1.10,2013-03-18 19:59:00,
2013-03-18 15:14:00,79.8,66.0,29.80,WSW,242,6.0,11.0,63,0.00,,,0.00,weatherlink.com 1.10,2013-03-18 20:14:00,
2013-03-18 15:29:00,79.6,66.0,29.80,NE,54,5.0,11.0,63,0.00,,,0.00,weatherlink.com 1.10,2013-03-18 20:29:00,
2013-03-18 15:44:00,78.8,67.0,29.80,East,92,2.0,12.0,67,0.00,,,0.00,weatherlink.com 1.10,2013-03-18 20:44:00,
2013-03-18 15:59:00,78.6,67.0,29.79,SE,125,2.0,9.0,67,0.00,,,0.00,weatherlink.com 1.10,2013-03-18 20:59:00,
2013-03-18 16:14:00,78.9,67.0,29.79,NW,313,2.0,10.0,66,0.00,,,0.00,weatherlink.com 1.10,2013-03-18 21:14:00,
2013-03-18 16:29:00,79.6,66.0,29.79,South,174,3.0,9.0,63,0.00,,,0.00,weatherlink.com 1.10,2013-03-18 21:29:00,
2013-03-18 16:44:00,79.8,67.0,29.78,ENE,77,3.0,8.0,65,0.00,,,0.00,weatherlink.com 1.10,2013-03-18 21:44:00,
2013-03-18 16:59:00,80.4,68.0,29.78,ENE,72,5.0,9.0,65,0.00,,,0.00,weatherlink.com 1.10,2013-03-18 21:59:00,
2013-03-18 17:14:00,80.2,65.0,29.78,NNW,339,5.0,12.0,60,0.00,,,0.00,weatherlink.com 1.10,2013-03-18 22:14:00,
2013-03-18 17:29:00,80.3,66.0,29.78,SE,134,2.0,10.0,62,0.00,,,0.00,weatherlink.com 1.10,2013-03-18 22:29:00,
2013-03-18 17:44:00,79.5,66.0,29.78,SE,146,5.0,10.0,63,0.00,,,0.00,weatherlink.com 1.10,2013-03-18 22:44:00,
2013-03-18 17:59:00,78.0,67.0,29.78,East,100,3.0,9.0,68,0.00,,,0.00,weatherlink.com 1.10,2013-03-18 22:59:00,
2013-03-18 18:14:00,76.8,67.0,29.79,NE,56,3.0,7.0,72,0.00,,,0.00,weatherlink.com 1.10,2013-03-18 23:14:00,
2013-03-18 18:29:00,75.4,67.0,29.80,SSW,201,1.0,10.0,75,0.00,,,0.00,weatherlink.com 1.10,2013-03-18 23:29:00,
2013-03-18 18:44:00,74.5,67.0,29.82,South,187,3.0,6.0,78,0.00,,,0.00,weatherlink.com 1.10,2013-03-18 23:44:00,
2013-03-18 18:59:00,73.6,67.0,29.82,SSE,160,0.0,9.0,80,0.00,,,0.00,weatherlink.com 1.10,2013-03-18 23:59:00,
2013-03-18 19:14:00,72.7,67.0,29.83,WNW,297,0.0,4.0,82,0.00,,,0.00,weatherlink.com 1.10,2013-03-19 00:14:00,
2013-03-18 19:29:00,72.1,67.0,29.85,WSW,242,0.0,4.0,83,0.00,,,0.00,weatherlink.com 1.10,2013-03-19 00:29:00,
2013-03-18 19:44:00,71.9,67.0,29.88,NW,304,1.0,3.0,84,0.00,,,0.00,weatherlink.com 1.10,2013-03-19 00:44:00,
2013-03-18 19:59:00,67.1,57.0,29.89,NW,321,4.0,16.0,70,0.00,,,0.00,weatherlink.com 1.10,2013-03-19 00:59:00,
2013-03-18 20:14:00,61.0,58.0,29.90,West,262,3.0,18.0,90,0.05,,,0.05,weatherlink.com 1.10,2013-03-19 01:14:00,
2013-03-18 20:29:00,59.7,58.0,29.90,West,274,2.0,6.0,94,0.24,,,0.24,weatherlink.com 1.10,2013-03-19 01:29:00,
2013-03-18 20:44:00,59.4,58.0,29.90,NW,323,0.0,3.0,95,0.25,,,0.25,weatherlink.com 1.10,2013-03-19 01:44:00,
2013-03-18 20:59:00,59.4,58.0,29.88,ENE,77,2.0,2.0,95,0.26,,,0.26,weatherlink.com 1.10,2013-03-19 01:59:00,
2013-03-18 21:15:00,59.2,58.0,29.84,ENE,70,5.0,6.0,95,0.20,,,0.26,weatherlink.com 1.10,2013-03-19 02:15:00,
2013-03-18 21:29:00,58.9,58.0,29.83,ESE,102,0.0,5.0,96,0.02,,,0.26,weatherlink.com 1.10,2013-03-19 02:29:00,
2013-03-18 21:44:00,58.6,58.0,29.81,ESE,113,2.0,5.0,96,0.01,,,0.26,weatherlink.com 1.10,2013-03-19 02:44:00,
2013-03-18 21:59:00,58.2,57.0,29.80,ENE,71,1.0,2.0,97,0.00,,,0.26,weatherlink.com 1.10,2013-03-19 02:59:00,
2013-03-18 22:14:00,57.9,57.0,29.84,ESE,118,2.0,3.0,97,0.00,,,0.26,weatherlink.com 1.10,2013-03-19 03:14:00,
2013-03-18 22:29:00,58.0,57.0,29.86,East,98,3.0,6.0,97,0.00,,,0.26,weatherlink.com 1.10,2013-03-19 03:29:00,
2013-03-18 22:44:00,57.9,57.0,29.87,East,89,2.0,3.0,97,0.00,,,0.26,weatherlink.com 1.10,2013-03-19 03:44:00,
2013-03-18 22:59:00,57.7,57.0,29.88,SSW,198,0.0,1.0,97,0.00,,,0.26,weatherlink.com 1.10,2013-03-19 03:59:00,
2013-03-18 23:14:00,57.5,57.0,29.91,WNW,301,3.0,4.0,98,0.00,,,0.26,weatherlink.com 1.10,2013-03-19 04:14:00,
2013-03-18 23:29:00,57.8,57.0,29.90,ENE,75,0.0,3.0,98,0.00,,,0.26,weatherlink.com 1.10,2013-03-19 04:29:00,
2013-03-18 23:44:00,57.6,57.0,29.90,SE,128,0.0,1.0,98,0.00,,,0.26,weatherlink.com 1.10,2013-03-19 04:44:00,
2013-03-18 23:59:00,57.6,57.0,29.89,SE,129,0.0,1.0,98,0.00,,,0.26,weatherlink.com 1.10,2013-03-19 04:59:00,